Time;durP1;ratioP1;P1;durP2;ratioP2;P2;SDS_P1;SDS_P2;PMS_P1;PMS_P2;Temp;Humidity;BMP_temperature;BMP_pressure;BME280_temperature;BME280_humidity;BME280_pressure;Samples;Min_cycle;Max_cycle;Signal;HPM_P1;HPM_P2
2021/06/19 00:00:23;;;;;;;4.63;3.20;;;;;;;;;;5109688;28;20043;-56
2021/06/19 00:02:48;;;;;;;4.53;2.47;;;;;;;;;;5107979;28;20027;-55
2021/06/19 00:05:14;;;;;;;5.28;2.78;;;;;;;;;;5112426;28;20077;-57
2021/06/19 00:07:39;;;;;;;3.63;2.90;;;;;;;;;;5111525;28;20085;-56
2021/06/19 00:10:06;;;;;;;2.88;2.50;;;;;;;;;;5111632;28;20415;-54
2021/06/19 00:12:31;;;;;;;3.63;2.85;;;;;;;;;;5106902;28;20518;-57
2021/06/19 00:14:56;;;;;;;2.97;2.50;;;;;;;;;;5096227;28;20054;-55
2021/06/19 00:17:21;;;;;;;3.17;2.47;;;;;;;;;;5091985;28;20026;-56
2021/06/19 00:19:47;;;;;;;2.97;2.22;;;;;;;;;;5109780;28;20266;-55
2021/06/19 00:22:12;;;;;;;3.78;2.80;;;;;;;;;;5108084;28;20024;-56
2021/06/19 00:24:38;;;;;;;3.72;2.30;;;;;;;;;;5108040;28;20047;-56
2021/06/19 00:27:04;;;;;;;2.65;2.45;;;;;;;;;;5092244;28;20062;-55
2021/06/19 00:29:31;;;;;;;3.55;3.08;;;;;;;;;;5107855;28;20024;-57
2021/06/19 00:31:56;;;;;;;3.03;2.60;;;;;;;;;;5109477;28;20386;-56
2021/06/19 00:34:21;;;;;;;2.88;2.67;;;;;;;;;;5098331;28;20012;-56
2021/06/19 00:36:46;;;;;;;4.07;2.75;;;;;;;;;;5098628;28;20562;-56
2021/06/19 00:39:12;;;;;;;2.92;2.72;;;;;;;;;;5109710;28;20743;-56
2021/06/19 00:41:37;;;;;;;3.40;3.20;;;;;;;;;;5104451;28;20620;-57
2021/06/19 00:44:13;;;;;;;4.80;2.70;;;;;;;;;;5107510;28;20020;-55
2021/06/19 00:46:38;;;;;;;2.90;2.70;;;;;;;;;;5109924;28;20023;-56
2021/06/19 00:49:04;;;;;;;3.13;2.92;;;;;;;;;;5103796;28;20085;-58
2021/06/19 00:51:29;;;;;;;4.70;2.70;;;;;;;;;;5111029;28;20012;-56
2021/06/19 00:53:54;;;;;;;3.40;3.10;;;;;;;;;;5101668;28;20265;-57
2021/06/19 00:56:20;;;;;;;4.45;2.97;;;;;;;;;;5094469;28;20020;-57
2021/06/19 00:58:45;;;;;;;3.88;2.92;;;;;;;;;;5104424;28;20139;-58
2021/06/19 01:01:10;;;;;;;3.25;2.95;;;;;;;;;;5105951;28;20036;-56
2021/06/19 01:03:35;;;;;;;3.28;2.90;;;;;;;;;;5113114;28;20020;-57
2021/06/19 01:06:01;;;;;;;3.08;2.88;;;;;;;;;;5110053;28;20268;-56
2021/06/19 01:08:26;;;;;;;3.08;2.75;;;;;;;;;;5100320;28;20046;-57
2021/06/19 01:10:53;;;;;;;4.57;2.90;;;;;;;;;;5108040;28;20051;-56
2021/06/19 01:13:18;;;;;;;2.95;2.72;;;;;;;;;;5109341;28;20525;-56
2021/06/19 01:15:43;;;;;;;3.43;3.13;;;;;;;;;;5113542;28;20115;-56
2021/06/19 01:18:09;;;;;;;3.22;3.00;;;;;;;;;;5113688;28;20274;-56
2021/06/19 01:20:35;;;;;;;5.30;3.42;;;;;;;;;;5114449;28;20077;-56
2021/06/19 01:23:01;;;;;;;5.05;3.40;;;;;;;;;;5106858;28;20436;-56
2021/06/19 01:25:27;;;;;;;4.38;3.25;;;;;;;;;;5113385;28;20023;-55
2021/06/19 01:27:53;;;;;;;3.10;2.78;;;;;;;;;;5101499;28;20027;-57
2021/06/19 01:30:19;;;;;;;3.60;3.38;;;;;;;;;;5097344;28;20136;-57
2021/06/19 01:32:44;;;;;;;4.60;2.80;;;;;;;;;;5109758;28;20023;-56
2021/06/19 01:35:11;;;;;;;3.60;3.25;;;;;;;;;;5114284;28;20478;-57
2021/06/19 01:37:39;;;;;;;4.40;3.40;;;;;;;;;;5104440;28;20020;-56
2021/06/19 01:40:05;;;;;;;5.63;3.28;;;;;;;;;;5106653;28;20521;-57
2021/06/19 01:42:31;;;;;;;3.40;3.10;;;;;;;;;;5091922;28;20412;-57
2021/06/19 01:44:56;;;;;;;5.55;3.20;;;;;;;;;;5094321;28;20085;-56
2021/06/19 01:47:21;;;;;;;3.45;3.15;;;;;;;;;;5111172;28;20054;-55
2021/06/19 01:49:46;;;;;;;4.40;3.55;;;;;;;;;;5114781;28;20047;-57
2021/06/19 01:52:12;;;;;;;5.63;3.60;;;;;;;;;;5096295;28;20019;-55
2021/06/19 01:54:39;;;;;;;3.60;3.20;;;;;;;;;;5103700;28;20024;-56
2021/06/19 01:57:06;;;;;;;3.78;3.42;;;;;;;;;;5094605;28;20331;-57
2021/06/19 01:59:32;;;;;;;4.15;3.60;;;;;;;;;;5112113;28;20076;-57
2021/06/19 02:01:59;;;;;;;4.38;3.88;;;;;;;;;;5097318;28;20032;-57
2021/06/19 02:04:25;;;;;;;4.68;3.70;;;;;;;;;;5111763;28;20027;-55
2021/06/19 02:06:50;;;;;;;6.38;3.25;;;;;;;;;;5114882;28;20042;-57
2021/06/19 02:09:15;;;;;;;3.88;3.58;;;;;;;;;;5111725;28;20030;-55
2021/06/19 02:11:40;;;;;;;4.38;3.45;;;;;;;;;;5114676;28;20015;-55
2021/06/19 02:14:06;;;;;;;5.82;4.05;;;;;;;;;;5107516;28;20490;-54
2021/06/19 02:16:31;;;;;;;5.72;5.22;;;;;;;;;;5100536;28;20027;-57
2021/06/19 02:18:56;;;;;;;5.38;4.88;;;;;;;;;;5112971;28;20107;-56
2021/06/19 02:21:22;;;;;;;5.07;4.68;;;;;;;;;;5113040;28;20509;-55
2021/06/19 02:23:47;;;;;;;5.03;4.63;;;;;;;;;;5110643;28;20062;-56
2021/06/19 02:26:12;;;;;;;5.40;4.95;;;;;;;;;;5114595;28;20023;-57
2021/06/19 02:28:38;;;;;;;6.00;4.57;;;;;;;;;;5113618;28;20023;-57
2021/06/19 02:31:03;;;;;;;4.90;4.30;;;;;;;;;;5114526;28;20484;-57
2021/06/19 02:33:28;;;;;;;5.28;4.80;;;;;;;;;;5105921;28;20089;-57
2021/06/19 02:35:54;;;;;;;5.90;4.80;;;;;;;;;;5097055;28;20487;-56
2021/06/19 02:38:19;;;;;;;6.18;5.57;;;;;;;;;;5099577;28;20466;-54
2021/06/19 02:40:46;;;;;;;6.30;5.55;;;;;;;;;;5114030;28;20077;-55
2021/06/19 02:43:12;;;;;;;5.93;5.43;;;;;;;;;;5101034;28;20024;-56
2021/06/19 02:45:37;;;;;;;6.55;5.95;;;;;;;;;;5114405;28;20026;-55
2021/06/19 02:48:02;;;;;;;6.13;5.47;;;;;;;;;;5112870;28;20501;-56
2021/06/19 02:50:29;;;;;;;6.50;5.70;;;;;;;;;;5113756;28;20031;-55
2021/06/19 02:52:56;;;;;;;6.20;5.60;;;;;;;;;;5104421;28;20030;-56
2021/06/19 02:55:24;;;;;;;7.15;5.90;;;;;;;;;;5110773;28;20050;-57
2021/06/19 02:57:49;;;;;;;7.50;6.03;;;;;;;;;;5113698;28;20143;-55
2021/06/19 03:00:16;;;;;;;7.28;6.55;;;;;;;;;;5110954;28;20503;-54
2021/06/19 03:02:42;;;;;;;7.75;6.22;;;;;;;;;;5100756;28;20506;-55
2021/06/19 03:05:08;;;;;;;10.55;7.03;;;;;;;;;;5111946;28;20119;-54
2021/06/19 03:07:34;;;;;;;7.00;6.30;;;;;;;;;;5113490;28;20027;-57
2021/06/19 03:09:59;;;;;;;7.00;5.97;;;;;;;;;;5109353;28;20032;-55
2021/06/19 03:12:26;;;;;;;8.75;6.50;;;;;;;;;;5103761;28;20197;-56
2021/06/19 03:14:52;;;;;;;6.55;5.88;;;;;;;;;;5107802;28;20098;-54
2021/06/19 03:17:17;;;;;;;6.55;5.70;;;;;;;;;;5098734;28;20141;-56
2021/06/19 03:19:42;;;;;;;6.35;5.22;;;;;;;;;;5111509;28;20387;-56
2021/06/19 03:22:07;;;;;;;6.17;5.53;;;;;;;;;;5104988;28;20023;-55
2021/06/19 03:24:36;;;;;;;6.13;5.43;;;;;;;;;;5102702;28;20551;-57
2021/06/19 03:27:02;;;;;;;5.78;5.28;;;;;;;;;;5107572;28;20047;-55
2021/06/19 03:29:27;;;;;;;5.88;5.38;;;;;;;;;;5107862;28;20510;-56
2021/06/19 03:31:52;;;;;;;5.05;4.57;;;;;;;;;;5113120;28;20095;-53
2021/06/19 03:34:17;;;;;;;5.03;4.60;;;;;;;;;;5105354;28;20181;-57
2021/06/19 03:36:43;;;;;;;4.78;4.30;;;;;;;;;;5102944;28;20016;-53
2021/06/19 03:39:08;;;;;;;4.45;4.03;;;;;;;;;;5104199;28;20065;-55
2021/06/19 03:41:33;;;;;;;6.43;4.60;;;;;;;;;;5106883;28;20032;-56
2021/06/19 03:43:59;;;;;;;5.72;4.05;;;;;;;;;;5096070;28;20053;-54
2021/06/19 03:46:24;;;;;;;4.63;4.22;;;;;;;;;;5100209;28;20084;-54
2021/06/19 03:48:49;;;;;;;4.95;4.55;;;;;;;;;;5112701;28;20427;-56
2021/06/19 03:51:14;;;;;;;4.63;4.13;;;;;;;;;;5098580;28;20546;-57
2021/06/19 03:53:39;;;;;;;5.07;4.63;;;;;;;;;;5101309;28;20139;-54
2021/06/19 03:56:05;;;;;;;4.45;3.83;;;;;;;;;;5112321;28;20030;-56
2021/06/19 03:58:30;;;;;;;5.22;4.35;;;;;;;;;;5103619;28;20024;-57
2021/06/19 04:00:55;;;;;;;5.63;3.88;;;;;;;;;;5108791;28;20040;-56
2021/06/19 04:03:20;;;;;;;4.82;4.43;;;;;;;;;;5111612;28;20058;-54
2021/06/19 04:05:46;;;;;;;5.88;3.90;;;;;;;;;;5111651;28;20015;-54
2021/06/19 04:08:11;;;;;;;6.13;4.22;;;;;;;;;;5112157;28;20015;-56
2021/06/19 04:10:36;;;;;;;7.18;4.15;;;;;;;;;;5101561;28;20078;-56
2021/06/19 04:13:02;;;;;;;4.30;3.90;;;;;;;;;;5112715;28;20023;-54
2021/06/19 04:15:27;;;;;;;5.22;4.75;;;;;;;;;;5111588;28;20020;-55
2021/06/19 04:17:52;;;;;;;5.00;4.57;;;;;;;;;;5110852;28;20095;-57
2021/06/19 04:20:17;;;;;;;5.75;4.95;;;;;;;;;;5108453;28;20077;-55
2021/06/19 04:22:43;;;;;;;6.93;4.95;;;;;;;;;;5108763;28;20019;-58
2021/06/19 04:25:09;;;;;;;6.28;4.90;;;;;;;;;;5101330;28;20153;-56
2021/06/19 04:27:39;;;;;;;5.57;5.00;;;;;;;;;;5110888;28;20027;-55
2021/06/19 04:30:05;;;;;;;5.97;5.30;;;;;;;;;;5105256;28;20024;-55
2021/06/19 04:32:30;;;;;;;5.85;5.35;;;;;;;;;;5104461;28;20030;-55
2021/06/19 04:34:55;;;;;;;5.18;4.57;;;;;;;;;;5115680;28;20027;-56
2021/06/19 04:37:26;;;;;;;5.22;4.70;;;;;;;;;;5100526;28;20023;-56
2021/06/19 04:39:55;;;;;;;5.25;4.85;;;;;;;;;;5105483;28;20016;-56
2021/06/19 04:42:23;;;;;;;4.57;4.18;;;;;;;;;;5097533;28;20356;-54
2021/06/19 04:47:22;;;;;;;5.97;4.68;;;;;;;;;;5116007;28;20027;-54
2021/06/19 04:49:48;;;;;;;7.78;3.90;;;;;;;;;;5113960;28;20049;-55
2021/06/19 04:52:13;;;;;;;4.80;4.28;;;;;;;;;;5110189;28;20020;-53
2021/06/19 04:54:38;;;;;;;4.43;3.72;;;;;;;;;;5104674;28;20012;-56
2021/06/19 04:57:07;;;;;;;5.57;4.50;;;;;;;;;;5113470;28;20011;-56
2021/06/19 04:59:34;;;;;;;4.60;4.20;;;;;;;;;;5111093;28;20024;-56
2021/06/19 05:01:59;;;;;;;6.05;4.13;;;;;;;;;;5104521;28;20055;-56
2021/06/19 05:04:25;;;;;;;4.50;3.75;;;;;;;;;;5099905;28;20687;-58
2021/06/19 05:06:50;;;;;;;4.53;4.10;;;;;;;;;;5102482;28;20065;-53
2021/06/19 05:09:15;;;;;;;4.95;4.28;;;;;;;;;;5107286;28;20658;-56
2021/06/19 05:11:40;;;;;;;3.88;3.58;;;;;;;;;;5109102;28;20386;-57
2021/06/19 05:14:06;;;;;;;6.33;3.80;;;;;;;;;;5108981;28;20020;-54
2021/06/19 05:16:31;;;;;;;5.90;3.90;;;;;;;;;;5104160;28;20262;-57
2021/06/19 05:18:56;;;;;;;4.50;4.10;;;;;;;;;;5115071;28;20032;-56
2021/06/19 05:21:22;;;;;;;4.30;3.90;;;;;;;;;;5106886;28;20269;-56
2021/06/19 05:23:47;;;;;;;5.43;4.68;;;;;;;;;;5100405;28;20514;-55
2021/06/19 05:26:12;;;;;;;4.57;4.07;;;;;;;;;;5099608;27;20464;-57
2021/06/19 05:28:37;;;;;;;4.20;3.90;;;;;;;;;;5095145;28;20019;-55
2021/06/19 05:31:03;;;;;;;4.97;4.03;;;;;;;;;;5092142;28;20406;-53
2021/06/19 05:33:29;;;;;;;4.30;4.00;;;;;;;;;;5115418;28;20028;-55
2021/06/19 05:35:54;;;;;;;4.28;3.88;;;;;;;;;;5101882;28;20406;-57
2021/06/19 05:38:20;;;;;;;4.53;4.13;;;;;;;;;;5114565;28;20054;-56
2021/06/19 05:40:46;;;;;;;4.18;3.78;;;;;;;;;;5103847;28;20506;-55
2021/06/19 05:43:11;;;;;;;4.30;3.90;;;;;;;;;;5110331;28;20028;-57
2021/06/19 05:45:36;;;;;;;5.00;3.80;;;;;;;;;;5106429;28;20500;-56
2021/06/19 05:48:02;;;;;;;3.77;3.47;;;;;;;;;;5104083;28;20016;-54
2021/06/19 05:50:27;;;;;;;4.03;3.67;;;;;;;;;;5109806;28;20702;-57
2021/06/19 05:52:52;;;;;;;4.37;3.80;;;;;;;;;;5107578;28;20099;-55
2021/06/19 05:55:18;;;;;;;5.27;3.97;;;;;;;;;;5099328;28;20290;-56
2021/06/19 05:57:43;;;;;;;4.45;3.53;;;;;;;;;;5114814;28;20336;-57
2021/06/19 06:00:09;;;;;;;3.60;3.30;;;;;;;;;;5104297;28;20036;-57
2021/06/19 06:02:34;;;;;;;4.25;3.90;;;;;;;;;;5109070;28;20015;-57
2021/06/19 06:04:59;;;;;;;3.90;3.53;;;;;;;;;;5103869;28;20024;-54
2021/06/19 06:07:25;;;;;;;4.18;3.88;;;;;;;;;;5114454;28;20111;-58
2021/06/19 06:09:50;;;;;;;3.72;3.40;;;;;;;;;;5103491;28;20382;-55
2021/06/19 06:12:15;;;;;;;5.20;4.53;;;;;;;;;;5109857;28;20391;-56
2021/06/19 06:14:41;;;;;;;5.13;4.13;;;;;;;;;;5094631;28;20111;-57
2021/06/19 06:17:06;;;;;;;4.97;4.30;;;;;;;;;;5113898;27;20020;-56
2021/06/19 06:19:32;;;;;;;4.03;3.70;;;;;;;;;;5109733;28;20366;-57
2021/06/19 06:21:57;;;;;;;4.43;4.13;;;;;;;;;;5111461;28;20076;-53
2021/06/19 06:24:22;;;;;;;4.03;3.53;;;;;;;;;;5114469;28;20020;-56
2021/06/19 06:26:48;;;;;;;3.93;3.47;;;;;;;;;;5114407;28;20336;-56
2021/06/19 06:29:13;;;;;;;4.72;3.40;;;;;;;;;;5113130;28;20352;-58
2021/06/19 06:31:39;;;;;;;4.32;3.92;;;;;;;;;;5107399;28;20020;-57
2021/06/19 06:34:04;;;;;;;4.05;3.17;;;;;;;;;;5109203;28;20103;-57
2021/06/19 06:36:29;;;;;;;2.95;2.75;;;;;;;;;;5112101;28;20059;-58
2021/06/19 06:38:58;;;;;;;3.50;3.20;;;;;;;;;;5107208;28;20063;-55
2021/06/19 06:41:24;;;;;;;3.55;3.22;;;;;;;;;;5096559;28;20097;-57
2021/06/19 06:43:49;;;;;;;4.50;2.85;;;;;;;;;;5114007;28;20535;-57
2021/06/19 06:46:14;;;;;;;3.27;3.07;;;;;;;;;;5113266;28;20015;-57
2021/06/19 06:48:40;;;;;;;3.30;3.00;;;;;;;;;;5111652;28;20278;-56
2021/06/19 06:51:05;;;;;;;3.83;2.90;;;;;;;;;;5103825;28;20258;-58
2021/06/19 06:53:30;;;;;;;3.40;3.10;;;;;;;;;;5120003;27;20024;-58
2021/06/19 06:55:56;;;;;;;3.22;3.03;;;;;;;;;;5093918;28;20479;-57
2021/06/19 06:58:21;;;;;;;3.00;2.72;;;;;;;;;;5112867;28;20016;-57
2021/06/19 07:00:47;;;;;;;3.30;3.00;;;;;;;;;;5110802;28;20114;-56
2021/06/19 07:03:12;;;;;;;3.80;2.83;;;;;;;;;;5113578;28;20027;-56
2021/06/19 07:05:37;;;;;;;3.83;3.03;;;;;;;;;;5109396;28;20020;-57
2021/06/19 07:08:02;;;;;;;3.30;2.97;;;;;;;;;;5100669;28;20393;-57
2021/06/19 07:10:28;;;;;;;3.40;3.10;;;;;;;;;;5098224;28;20610;-56
2021/06/19 07:12:53;;;;;;;3.40;3.10;;;;;;;;;;5107614;28;20024;-55
2021/06/19 07:15:19;;;;;;;3.57;3.07;;;;;;;;;;5107910;28;20257;-56
2021/06/19 07:17:44;;;;;;;4.57;3.10;;;;;;;;;;5113638;28;20253;-54
2021/06/19 07:20:11;;;;;;;3.20;2.90;;;;;;;;;;5100358;28;20467;-57
2021/06/19 07:22:36;;;;;;;3.83;2.50;;;;;;;;;;5096386;28;20102;-57
2021/06/19 07:25:06;;;;;;;3.38;3.08;;;;;;;;;;5109807;28;20107;-56
2021/06/19 07:27:31;;;;;;;2.78;2.53;;;;;;;;;;5102691;28;20024;-56
2021/06/19 07:29:57;;;;;;;3.40;3.00;;;;;;;;;;5102731;28;20371;-57
2021/06/19 07:32:22;;;;;;;3.63;3.30;;;;;;;;;;5090729;28;20024;-57
2021/06/19 07:34:47;;;;;;;4.45;3.10;;;;;;;;;;5093236;28;20058;-55
2021/06/19 07:37:12;;;;;;;3.10;2.87;;;;;;;;;;5097956;28;20030;-57
2021/06/19 07:39:38;;;;;;;5.75;2.83;;;;;;;;;;5097434;28;20274;-57
2021/06/19 07:42:03;;;;;;;3.40;3.10;;;;;;;;;;5099483;28;20113;-57
2021/06/19 07:44:29;;;;;;;3.97;3.03;;;;;;;;;;5098976;28;20016;-57
2021/06/19 07:46:54;;;;;;;4.78;3.20;;;;;;;;;;5092994;28;20028;-57
2021/06/19 07:49:20;;;;;;;3.30;3.00;;;;;;;;;;5099508;28;20020;-57
2021/06/19 07:51:45;;;;;;;3.60;3.30;;;;;;;;;;5089517;28;20443;-57
2021/06/19 07:54:11;;;;;;;3.05;2.85;;;;;;;;;;5091291;28;20024;-58
2021/06/19 07:56:36;;;;;;;4.30;3.00;;;;;;;;;;5101784;28;20022;-57
2021/06/19 07:59:02;;;;;;;4.00;3.60;;;;;;;;;;5100473;28;20015;-57
2021/06/19 08:01:27;;;;;;;4.07;3.10;;;;;;;;;;5100213;28;20044;-58
2021/06/19 08:03:52;;;;;;;3.45;3.15;;;;;;;;;;5109791;28;20027;-58
2021/06/19 08:06:18;;;;;;;5.07;3.20;;;;;;;;;;5109957;28;20019;-55
2021/06/19 08:08:44;;;;;;;3.40;3.10;;;;;;;;;;5100268;28;20791;-56
2021/06/19 08:11:10;;;;;;;3.92;3.08;;;;;;;;;;5108905;28;20621;-57
2021/06/19 08:13:35;;;;;;;3.33;3.03;;;;;;;;;;5105455;28;20093;-56
2021/06/19 08:16:03;;;;;;;3.42;3.10;;;;;;;;;;5107743;28;20050;-55
2021/06/19 08:18:28;;;;;;;5.18;3.30;;;;;;;;;;5106549;28;20529;-58
2021/06/19 08:20:53;;;;;;;3.25;3.03;;;;;;;;;;5093007;28;20102;-57
2021/06/19 08:23:19;;;;;;;4.17;2.83;;;;;;;;;;5106849;28;20102;-58
2021/06/19 08:25:44;;;;;;;3.60;2.75;;;;;;;;;;5112477;28;20283;-56
2021/06/19 08:28:09;;;;;;;6.85;2.78;;;;;;;;;;5106271;28;20049;-57
2021/06/19 08:30:35;;;;;;;3.58;2.83;;;;;;;;;;5103620;28;20031;-57
2021/06/19 08:33:00;;;;;;;3.50;2.80;;;;;;;;;;5100898;28;20036;-58
2021/06/19 08:35:25;;;;;;;2.95;2.63;;;;;;;;;;5104766;28;20262;-55
2021/06/19 08:37:50;;;;;;;3.42;2.80;;;;;;;;;;5101391;28;20028;-58
2021/06/19 08:40:16;;;;;;;3.67;2.90;;;;;;;;;;5102943;28;20060;-58
2021/06/19 08:42:41;;;;;;;5.13;2.63;;;;;;;;;;5109912;28;20039;-58
2021/06/19 08:45:06;;;;;;;3.63;2.85;;;;;;;;;;5097109;28;20031;-58
2021/06/19 08:47:37;;;;;;;5.55;2.70;;;;;;;;;;5092093;28;20433;-58
2021/06/19 08:50:13;;;;;;;3.47;2.60;;;;;;;;;;5105978;28;20072;-58
2021/06/19 08:52:42;;;;;;;3.75;2.75;;;;;;;;;;5103441;28;20575;-57
2021/06/19 08:55:11;;;;;;;4.63;2.70;;;;;;;;;;5109847;28;20550;-56
2021/06/19 08:57:37;;;;;;;3.63;3.20;;;;;;;;;;5109843;28;20036;-59
2021/06/19 09:00:05;;;;;;;4.68;2.83;;;;;;;;;;5104408;28;20018;-58
2021/06/19 09:02:30;;;;;;;5.60;2.65;;;;;;;;;;5088659;28;20040;-58
2021/06/19 09:04:57;;;;;;;3.80;2.70;;;;;;;;;;5103217;28;20016;-58
2021/06/19 09:07:52;;;;;;;3.63;2.80;;;;;;;;;;5105678;28;20016;-56
2021/06/19 09:10:19;;;;;;;3.60;2.97;;;;;;;;;;5093622;28;20050;-59
2021/06/19 09:13:03;;;;;;;5.10;3.15;;;;;;;;;;5093763;28;20047;-58
2021/06/19 09:15:33;;;;;;;4.88;3.08;;;;;;;;;;5108371;28;20027;-58
2021/06/19 09:18:01;;;;;;;2.65;2.45;;;;;;;;;;5102527;28;20099;-58
2021/06/19 09:20:34;;;;;;;3.20;3.00;;;;;;;;;;5100302;28;20015;-59
2021/06/19 09:23:04;;;;;;;3.58;3.28;;;;;;;;;;5101987;28;20330;-59
2021/06/19 09:25:29;;;;;;;3.40;3.10;;;;;;;;;;5109780;28;20039;-58
2021/06/19 09:27:56;;;;;;;4.05;3.38;;;;;;;;;;5109471;28;20020;-59
2021/06/19 09:30:22;;;;;;;4.53;3.60;;;;;;;;;;5113548;28;20019;-58
2021/06/19 09:32:50;;;;;;;5.90;3.08;;;;;;;;;;5102327;28;20078;-59
2021/06/19 09:35:17;;;;;;;4.60;2.97;;;;;;;;;;5109571;28;20061;-58
2021/06/19 09:37:45;;;;;;;3.22;2.85;;;;;;;;;;5103216;28;20015;-57
2021/06/19 09:40:22;;;;;;;3.50;2.78;;;;;;;;;;5099596;28;20414;-58
2021/06/19 09:42:48;;;;;;;4.45;3.05;;;;;;;;;;5103595;28;20095;-58
2021/06/19 09:45:17;;;;;;;3.75;2.80;;;;;;;;;;5114122;28;20102;-58
2021/06/19 09:47:43;;;;;;;3.35;3.08;;;;;;;;;;5101632;28;20024;-56
2021/06/19 09:50:08;;;;;;;4.23;3.50;;;;;;;;;;5114709;28;20140;-56
2021/06/19 09:52:33;;;;;;;3.65;3.35;;;;;;;;;;5111421;28;20277;-58
2021/06/19 09:54:59;;;;;;;4.05;3.58;;;;;;;;;;5110322;28;20031;-58
2021/06/19 09:57:41;;;;;;;4.05;3.38;;;;;;;;;;5110576;28;20024;-56
2021/06/19 10:00:07;;;;;;;3.88;3.53;;;;;;;;;;5107706;28;20036;-58
2021/06/19 10:02:32;;;;;;;6.00;3.60;;;;;;;;;;5098826;28;20076;-58
2021/06/19 10:04:58;;;;;;;4.57;2.90;;;;;;;;;;5096038;28;20034;-57
2021/06/19 10:07:24;;;;;;;3.85;3.25;;;;;;;;;;5107690;28;20732;-58
2021/06/19 10:09:50;;;;;;;5.40;3.15;;;;;;;;;;5114748;28;20038;-56
2021/06/19 10:12:23;;;;;;;2.83;2.72;;;;;;;;;;5098781;28;20024;-58
2021/06/19 10:14:49;;;;;;;3.95;3.05;;;;;;;;;;5095850;28;20020;-57
2021/06/19 10:17:16;;;;;;;3.75;3.33;;;;;;;;;;5103153;28;20046;-58
2021/06/19 10:19:41;;;;;;;3.95;3.33;;;;;;;;;;5099183;27;20109;-56
2021/06/19 10:22:07;;;;;;;3.65;2.75;;;;;;;;;;5105208;28;20058;-58
2021/06/19 10:24:32;;;;;;;4.82;2.90;;;;;;;;;;5103880;28;20047;-58
2021/06/19 10:26:58;;;;;;;4.65;3.05;;;;;;;;;;5094209;28;20480;-57
2021/06/19 10:29:24;;;;;;;4.07;3.23;;;;;;;;;;5096180;28;20102;-57
2021/06/19 10:31:50;;;;;;;5.30;3.55;;;;;;;;;;5094231;28;20640;-57
2021/06/19 10:34:22;;;;;;;5.53;3.80;;;;;;;;;;5100271;28;20383;-57
2021/06/19 10:36:47;;;;;;;3.95;3.58;;;;;;;;;;5097583;28;20463;-58
2021/06/19 10:39:15;;;;;;;4.45;3.70;;;;;;;;;;5108775;28;20031;-57
2021/06/19 10:41:45;;;;;;;4.10;3.70;;;;;;;;;;5097754;28;20023;-58
2021/06/19 10:44:11;;;;;;;5.53;2.92;;;;;;;;;;5100780;28;20467;-56
2021/06/19 10:46:37;;;;;;;4.93;3.75;;;;;;;;;;5113105;28;20035;-57
2021/06/19 10:49:22;;;;;;;4.05;3.47;;;;;;;;;;5113718;28;20478;-56
2021/06/19 10:51:47;;;;;;;5.13;3.78;;;;;;;;;;5108160;28;20043;-57
2021/06/19 10:54:14;;;;;;;4.50;4.03;;;;;;;;;;5106462;28;20051;-57
2021/06/19 10:56:43;;;;;;;5.25;4.55;;;;;;;;;;5113293;28;20494;-57
2021/06/19 10:59:16;;;;;;;3.92;3.58;;;;;;;;;;5112186;28;20012;-57
2021/06/19 11:01:42;;;;;;;4.53;4.07;;;;;;;;;;5102240;28;20389;-56
2021/06/19 11:04:27;;;;;;;5.07;3.57;;;;;;;;;;5093657;28;20804;-55
2021/06/19 11:06:52;;;;;;;4.43;3.97;;;;;;;;;;5103322;28;20277;-57
2021/06/19 11:09:20;;;;;;;4.13;3.73;;;;;;;;;;5113632;28;20493;-58
2021/06/19 11:11:54;;;;;;;5.15;3.58;;;;;;;;;;5109668;28;20022;-58
2021/06/19 11:14:38;;;;;;;3.75;3.50;;;;;;;;;;5105269;28;20534;-58
2021/06/19 11:17:03;;;;;;;4.05;3.70;;;;;;;;;;5105963;28;20042;-58
2021/06/19 11:19:32;;;;;;;6.57;3.80;;;;;;;;;;5093668;28;20024;-58
2021/06/19 11:22:16;;;;;;;3.85;3.45;;;;;;;;;;5096707;28;20273;-56
2021/06/19 11:25:02;;;;;;;5.25;3.53;;;;;;;;;;5110954;28;20026;-55
2021/06/19 11:27:46;;;;;;;4.00;3.60;;;;;;;;;;5104601;28;20055;-57
2021/06/19 11:30:31;;;;;;;4.45;3.40;;;;;;;;;;5111082;28;20482;-58
2021/06/19 11:33:16;;;;;;;5.30;3.97;;;;;;;;;;5106457;28;20028;-55
2021/06/19 11:35:42;;;;;;;5.20;3.88;;;;;;;;;;5100522;28;20042;-57
2021/06/19 11:38:07;;;;;;;5.72;3.40;;;;;;;;;;5111180;28;20019;-54
2021/06/19 11:40:34;;;;;;;5.55;3.75;;;;;;;;;;5103066;28;20227;-57
2021/06/19 11:42:59;;;;;;;5.00;3.75;;;;;;;;;;5112914;28;20035;-57
2021/06/19 11:45:24;;;;;;;6.63;4.05;;;;;;;;;;5110642;28;20019;-57
2021/06/19 11:48:19;;;;;;;4.82;3.60;;;;;;;;;;5112639;28;20059;-56
2021/06/19 11:50:45;;;;;;;6.40;3.70;;;;;;;;;;5091387;28;20055;-57
2021/06/19 11:53:22;;;;;;;5.10;3.25;;;;;;;;;;5112570;28;20065;-57
2021/06/19 11:55:48;;;;;;;5.30;3.70;;;;;;;;;;5112012;28;20050;-55
2021/06/19 11:58:13;;;;;;;7.03;3.72;;;;;;;;;;5111476;28;20042;-57
2021/06/19 12:00:54;;;;;;;5.63;3.70;;;;;;;;;;5108937;28;20143;-57
2021/06/19 12:03:21;;;;;;;4.55;3.47;;;;;;;;;;5104030;27;20426;-56
2021/06/19 12:05:46;;;;;;;6.13;4.30;;;;;;;;;;5096137;28;20062;-57
2021/06/19 12:08:11;;;;;;;6.03;3.92;;;;;;;;;;5110179;28;20401;-58
2021/06/19 12:10:37;;;;;;;5.60;3.77;;;;;;;;;;5109319;28;20085;-58
2021/06/19 12:13:03;;;;;;;6.32;4.03;;;;;;;;;;5110724;27;20030;-57
2021/06/19 12:15:30;;;;;;;4.18;3.78;;;;;;;;;;5110018;28;20027;-58
2021/06/19 12:17:56;;;;;;;7.43;3.92;;;;;;;;;;5104682;28;20016;-57
2021/06/19 12:20:24;;;;;;;4.88;3.55;;;;;;;;;;5101904;28;20031;-58
2021/06/19 12:22:50;;;;;;;4.10;3.30;;;;;;;;;;5110247;28;20008;-56
2021/06/19 12:25:32;;;;;;;6.85;3.08;;;;;;;;;;5110287;28;20023;-57
2021/06/19 12:27:58;;;;;;;4.68;3.22;;;;;;;;;;5112250;28;20107;-58
2021/06/19 12:30:23;;;;;;;4.43;3.03;;;;;;;;;;5106570;28;20432;-58
2021/06/19 12:32:49;;;;;;;3.37;3.07;;;;;;;;;;5107472;28;20023;-57
2021/06/19 12:35:16;;;;;;;5.07;3.40;;;;;;;;;;5101935;28;20277;-58
2021/06/19 12:37:48;;;;;;;5.45;3.70;;;;;;;;;;5111451;28;20463;-58
2021/06/19 12:40:13;;;;;;;3.80;3.40;;;;;;;;;;5104424;28;20041;-57
2021/06/19 12:42:47;;;;;;;7.20;3.45;;;;;;;;;;5102197;28;20391;-58
2021/06/19 12:45:15;;;;;;;6.53;3.20;;;;;;;;;;5106868;28;20011;-56
2021/06/19 12:47:43;;;;;;;4.78;3.15;;;;;;;;;;5106810;28;20027;-58
2021/06/19 12:50:09;;;;;;;4.20;3.30;;;;;;;;;;5109529;28;20475;-57
2021/06/19 12:52:53;;;;;;;4.13;3.72;;;;;;;;;;5102814;28;20117;-58
2021/06/19 12:55:18;;;;;;;;;;;;;;;;;;5110632;27;20016;-58
2021/06/19 12:57:43;;;;;;;4.80;3.58;;;;;;;;;;5115690;27;19914;-58
2021/06/19 13:00:09;;;;;;;4.45;4.07;;;;;;;;;;5113613;28;20946;-58
2021/06/19 13:02:54;;;;;;;4.35;3.97;;;;;;;;;;5104826;28;20134;-57
2021/06/19 13:05:20;;;;;;;3.90;3.47;;;;;;;;;;5100848;27;20398;-58
2021/06/19 13:07:45;;;;;;;4.78;3.50;;;;;;;;;;5108851;27;20038;-57
2021/06/19 13:10:10;;;;;;;5.57;3.80;;;;;;;;;;5106276;27;20389;-57
2021/06/19 13:12:48;;;;;;;5.20;3.47;;;;;;;;;;5109769;28;20023;-57
2021/06/19 13:15:14;;;;;;;4.68;3.47;;;;;;;;;;5112364;27;20019;-56
2021/06/19 13:17:42;;;;;;;4.07;3.67;;;;;;;;;;5100907;27;20107;-56
2021/06/19 13:20:28;;;;;;;5.68;3.33;;;;;;;;;;5101551;28;20016;-55
2021/06/19 13:23:19;;;;;;;3.50;3.20;;;;;;;;;;5108326;28;20066;-57
2021/06/19 13:25:51;;;;;;;4.53;3.22;;;;;;;;;;5097180;28;20036;-55
2021/06/19 13:28:17;;;;;;;4.53;2.95;;;;;;;;;;5105586;28;20055;-56
2021/06/19 13:30:42;;;;;;;7.22;3.47;;;;;;;;;;5098466;28;20078;-55
2021/06/19 13:33:07;;;;;;;5.73;3.07;;;;;;;;;;5111471;28;20060;-56
2021/06/19 13:35:48;;;;;;;4.00;3.67;;;;;;;;;;5115651;28;20250;-56
2021/06/19 13:38:13;;;;;;;4.70;3.08;;;;;;;;;;5112662;28;20023;-57
2021/06/19 13:40:39;;;;;;;2.90;2.65;;;;;;;;;;5108774;28;20020;-56
2021/06/19 13:43:04;;;;;;;4.73;2.77;;;;;;;;;;5105231;27;20047;-56
2021/06/19 13:45:29;;;;;;;3.67;2.97;;;;;;;;;;5102537;27;20417;-57
2021/06/19 13:47:54;;;;;;;5.83;2.80;;;;;;;;;;5112190;28;20486;-57
2021/06/19 13:50:19;;;;;;;3.20;2.90;;;;;;;;;;5107106;27;20055;-57
2021/06/19 13:52:46;;;;;;;6.27;2.77;;;;;;;;;;5105295;28;20099;-57
2021/06/19 13:55:11;;;;;;;3.72;2.75;;;;;;;;;;5113860;27;20068;-57
2021/06/19 13:57:37;;;;;;;4.73;2.57;;;;;;;;;;5106443;28;20114;-57
2021/06/19 14:00:02;;;;;;;5.20;2.73;;;;;;;;;;5113503;28;20264;-57
2021/06/19 14:02:28;;;;;;;4.13;2.83;;;;;;;;;;5105706;27;20155;-57
2021/06/19 14:04:53;;;;;;;5.40;2.97;;;;;;;;;;5112801;28;20088;-57
2021/06/19 14:07:20;;;;;;;4.72;2.95;;;;;;;;;;5112745;27;20011;-57
2021/06/19 14:09:45;;;;;;;5.30;3.05;;;;;;;;;;5106919;28;20024;-55
2021/06/19 14:12:10;;;;;;;4.17;3.10;;;;;;;;;;5098696;28;20095;-57
2021/06/19 14:14:36;;;;;;;5.20;3.00;;;;;;;;;;5111321;28;20349;-57
2021/06/19 14:17:02;;;;;;;4.60;3.30;;;;;;;;;;5113681;28;20016;-57
2021/06/19 14:19:28;;;;;;;4.65;3.30;;;;;;;;;;5112931;28;20035;-57
2021/06/19 14:21:54;;;;;;;6.60;3.00;;;;;;;;;;5100716;28;20016;-57
2021/06/19 14:24:20;;;;;;;3.47;3.13;;;;;;;;;;5102913;28;20024;-57
2021/06/19 14:26:51;;;;;;;4.75;3.10;;;;;;;;;;5111887;27;20019;-57
2021/06/19 14:29:16;;;;;;;4.93;3.28;;;;;;;;;;5105025;27;20048;-57
2021/06/19 14:31:41;;;;;;;3.60;3.00;;;;;;;;;;5106912;28;20519;-57
2021/06/19 14:34:07;;;;;;;4.00;3.00;;;;;;;;;;5110197;27;20023;-57
2021/06/19 14:36:32;;;;;;;3.23;2.97;;;;;;;;;;5113522;28;20015;-57
2021/06/19 14:38:57;;;;;;;4.43;3.40;;;;;;;;;;5113158;28;20265;-57
2021/06/19 14:41:22;;;;;;;6.50;4.30;;;;;;;;;;5111100;28;20019;-57
2021/06/19 14:43:49;;;;;;;4.00;3.63;;;;;;;;;;5113741;28;20084;-57